Hovedside
METAR-TAF:

METAR-TAF

Lufthavner :

Wallis, Frankrike

breddegrad: 13-14S, lengdegrad: 176-10W, høyde over havet: 23 m

METAR: fraværende

Tid: 01:26 (13:26 UTC)

Varsel

Denne rapporten ble laget for 2 timer og 26 minutter siden, klokken 11:00 UTC
Varsel gyldig fra 22. klokken 12 UTC til 23. klokken 12 UTC
Vind 12 kt fra Øst-sørøst
Sikt 10 km eller mer
Spredte skyer i en høyde av 2000 ft
Spredte skyer i en høyde av 5000 ft
Sannsynlighet 40% :
Midlertidig
fra 22. klokken 12 UTC til 22. klokken 22 UTC
Få skyer i en høyde av 2000 ft, Tårnskyer (cumulus).
regnbyger
Midlertidig
fra 22. klokken 22 UTC til 23. klokken 07 UTC
Sikt: 3000 m
Spredte skyer i en høyde av 1800 ft, Bygeskyer.
regnbyger

TAF: NLWW 221100Z 2212/2312 12012KT 9999 SCT020 SCT050 PROB40 TEMPO 2212/2222 SHRA FEW020TCU TEMPO 2222/2307 3000 SHRA SCT018CB

Værobservasjoner og værvarsel for over 4000 flyplasser (METAR- og TAF-rapporter).

Tilgjengelige stasjoner er representert av de røde og gule prikkene på kartet.

Hold musepekeren over prikken for å se navnet på stasjonen.

Klikk så for å se værobservasjoner og -varsler.

For å forandre kartet kan du klikke på den grønne knappen med svart kryss for å zoome inn, på den grønne knappen med strek for å zoome ut, eller på de grønne pilene for å se tilstøtende kart.


METAR-TAF: